• Join FlightAware (Why Join?)
  • Login
  • US Flag 
05:07PM EDT


 

Airport Tracker/Info


-or-


 

Live Flight TrackerFlight Track Log ✈ SKW5564 ✈ 26-Aug-2013 ✈ KSFO - KMFR

Flight Track Log - Related Links

Times and Time Zones

All times are in EDT time to prevent confusion due to time zone crossing. See the SKW5564 flight status page for this flight to view local times or setup timezone preferences in your user account.

Time Position Orientation Groundspeed Altitude Reporting Facility
EDT Latitude Longitude Course Direction KTS MPH feet Rate Location/Type
01:28AM 37.6417 -122.3578 North 163 188 32,000  Level Oakland Center
01:29AM 37.6833 -122.3333 25° Northeast 204 235 2,500 -15,900 Descending Northern Cal TRACON
01:30AM 37.7333 -122.3500 345° North 266 306 5,000 2,460 Climbing Northern Cal TRACON
01:32AM 38.0929 -122.3833 North  Level FlightAware Approximate
01:32AM 37.9225 -122.3603 358° North 293 337 10,700  Level Oakland Center
01:33AM 38.2156 -122.3833 North  Level FlightAware Approximate
01:33AM 38.0178 -122.3569 North 339 390 12,300  Level Oakland Center
01:34AM 38.1203 -122.3503 North 366 421 14,500 1,980 Climbing Oakland Center
01:35AM 38.2264 -122.3436 North 380 437 16,400 1,980 Climbing Oakland Center
01:36AM 38.3358 -122.3375 North 391 450 18,500 1,980 Climbing Oakland Center
01:37AM 38.4481 -122.3308 North 399 459 20,500 1,920 Climbing Oakland Center
01:38AM 38.5597 -122.3247 North 402 463 22,400 1,740 Climbing Oakland Center
01:39AM 38.6781 -122.3194 North 411 473 24,100 1,500 Climbing Oakland Center
01:40AM 38.7972 -122.3328 355° North 427 491 25,500 1,380 Climbing Oakland Center
01:41AM 38.9181 -122.3458 355° North 433 498 26,900 1,260 Climbing Oakland Center
01:42AM 39.0436 -122.3600 355° North 444 511 28,100 1,140 Climbing Oakland Center
01:43AM 39.1714 -122.3764 354° North 455 524 29,200 1,080 Climbing Oakland Center
01:44AM 39.3017 -122.3900 355° North 464 534 30,300 1,080 Climbing Oakland Center
01:45AM 39.4331 -122.4058 355° North 470 541 31,400 840 Climbing Oakland Center
01:46AM 39.5589 -122.4217 354° North 475 547 32,000 240 Climbing Oakland Center
01:47AM 39.7189 -122.4394 355° North 479 551 32,000  Level Oakland Center
01:48AM 39.8536 -122.4558 355° North 483 556 32,000  Level Oakland Center
01:49AM 39.9897 -122.4731 354° North 487 560 32,000  Level Oakland Center
01:50AM 40.1011 -122.4894 354° North 491 565 32,000  Level Oakland Center
01:51AM 40.2419 -122.5033 356° North 493 567 32,000  Level Oakland Center
01:52AM 40.3814 -122.5197 355° North 495 570 32,000  Level Oakland Center
01:54AM 40.5169 -122.5342 355° North 490 564 32,000  Level Oakland Center
01:55AM 40.6528 -122.5497 355° North 489 563 32,000  Level Oakland Center
01:56AM 40.7883 -122.5689 354° North 489 563 32,000 -720 Level Oakland Center
01:57AM 40.9528 -122.5889 355° North 493 567 30,600 -1,980 Descending Oakland Center
01:58AM 41.0853 -122.6053 355° North 482 555 28,100 -2,520 Descending Oakland Center
01:59AM 41.2131 -122.6222 354° North 466 536 25,600 -2,400 Descending Oakland Center
01:59AM 41.3119 -122.6336 355° North 453 521 23,600 -2,580 Descending Seattle Center
02:00AM 41.4453 -122.6486 355° North 433 498 20,800 -2,460 Descending Seattle Center
02:02AM 41.5564 -122.6616 355° North  Level FlightAware Approximate
02:04AM 41.8775 -122.7022 340° North 368 423 11,300  Level Seattle Center
02:05AM 41.9669 -122.7139 354° North 343 395 10,300 -660 Descending Seattle Center
02:07AM 42.0469 -122.7244 354° North 295 339 10,000 -420 Descending Seattle Center
02:08AM 42.1222 -122.7411 351° North 274 315 9,500 -1,260 Descending Seattle Center
02:09AM 42.2795 -122.8231 340° North  Level FlightAware Approximate
02:09AM 42.1853 -122.7711 341° North 242 278 7,500  Level Seattle Center
02:10AM 42.3667 -122.8667 340° North  Level FlightAware Approximate
02:10AM 42.2394 -122.7997 339° North 206 237 5,400  Level Seattle Center
02:11AM 42.2781 -122.8225 336° Northwest 160 184 3,600 -1,440 Descending Seattle Center
02:12AM 42.3133 -122.8411 339° North 141 162 2,600 -960 Descending Seattle Center
02:13AM 42.3483 -122.8594 339° North 136 157 1,700 -660 Descending Seattle Center
02:14AM 42.3803 -122.8742 341° North 135 155 1,300 -420 Descending Seattle Center